createdAt,value
2023-05-19T00:01:55.365Z,3.90
2023-05-19T00:04:23.288Z,3.45
2023-05-19T00:06:51.740Z,3.85
2023-05-19T00:09:19.087Z,3.55
2023-05-19T00:11:46.678Z,3.50
2023-05-19T00:14:14.132Z,3.28
2023-05-19T00:16:42.461Z,3.13
2023-05-19T00:19:10.515Z,3.20
2023-05-19T00:21:41.060Z,2.75
2023-05-19T00:24:08.242Z,2.42
2023-05-19T00:26:35.498Z,2.50
2023-05-19T00:29:05.767Z,2.15
2023-05-19T00:31:34.342Z,1.90
2023-05-19T00:36:29.184Z,2.05
2023-05-19T00:38:57.135Z,2.10
2023-05-19T00:41:24.965Z,2.25
2023-05-19T00:43:52.448Z,2.00
2023-05-19T00:46:20.005Z,2.22
2023-05-19T00:48:48.533Z,2.60
2023-05-19T00:51:17.251Z,1.63
2023-05-19T00:56:17.053Z,1.60
2023-05-19T00:58:44.767Z,1.30
2023-05-19T01:01:12.414Z,1.60
2023-05-19T01:03:41.013Z,1.40
2023-05-19T01:06:08.422Z,1.52
2023-05-19T01:08:38.481Z,1.40
2023-05-19T01:11:07.095Z,1.42
2023-05-19T01:13:36.534Z,1.33
2023-05-19T01:16:25.164Z,1.30
2023-05-19T01:19:01.891Z,1.10
2023-05-19T01:21:49.325Z,1.20
2023-05-19T01:24:41.109Z,1.20
2023-05-19T01:27:39.064Z,1.15
2023-05-19T01:30:11.976Z,1.10
2023-05-19T01:32:42.029Z,1.02
2023-05-19T01:35:10.463Z,1.20
2023-05-19T01:37:39.622Z,1.10
2023-05-19T01:40:10.692Z,1.15
2023-05-19T01:42:40.143Z,1.20
2023-05-19T01:45:11.498Z,1.25
2023-05-19T01:47:42.792Z,1.33
2023-05-19T01:50:11.177Z,1.10
2023-05-19T01:52:38.571Z,1.30
2023-05-19T01:55:06.699Z,1.38
2023-05-19T01:57:46.269Z,1.30
2023-05-19T02:00:37.760Z,1.40
2023-05-19T02:03:07.853Z,1.40
2023-05-19T02:05:38.506Z,1.42
2023-05-19T02:08:23.075Z,1.92
2023-05-19T02:10:55.066Z,1.73
2023-05-19T02:13:28.528Z,1.70
2023-05-19T02:16:03.314Z,1.90
2023-05-19T02:18:35.515Z,1.73
2023-05-19T02:21:03.058Z,1.95
2023-05-19T02:23:30.147Z,2.22
2023-05-19T02:25:58.331Z,2.22
2023-05-19T02:28:28.551Z,2.10
2023-05-19T02:30:55.838Z,1.95
2023-05-19T02:33:26.203Z,2.33
2023-05-19T02:35:53.644Z,2.40
2023-05-19T02:38:21.473Z,3.00
2023-05-19T02:40:48.711Z,2.40
2023-05-19T02:43:15.863Z,2.03
2023-05-19T02:45:43.009Z,2.30
2023-05-19T02:48:10.242Z,2.03
2023-05-19T02:50:37.485Z,2.20
2023-05-19T02:53:04.720Z,2.47
2023-05-19T02:55:31.820Z,2.20
2023-05-19T02:57:58.904Z,2.00
2023-05-19T03:00:26.175Z,2.30
2023-05-19T03:02:53.465Z,1.90
2023-05-19T03:05:20.945Z,2.40
2023-05-19T03:07:48.078Z,2.25
2023-05-19T03:10:15.331Z,2.30
2023-05-19T03:12:42.482Z,2.60
2023-05-19T03:15:10.020Z,2.30
2023-05-19T03:17:37.289Z,2.20
2023-05-19T03:20:05.630Z,2.67
2023-05-19T03:22:33.280Z,2.25
2023-05-19T03:25:00.550Z,2.25
2023-05-19T03:27:27.874Z,2.13
2023-05-19T03:29:55.644Z,2.67
2023-05-19T03:32:24.149Z,2.05
2023-05-19T03:34:51.639Z,2.25
2023-05-19T03:37:19.075Z,2.10
2023-05-19T03:39:46.194Z,2.75
2023-05-19T03:42:13.566Z,2.60
2023-05-19T03:44:40.848Z,2.42
2023-05-19T03:47:08.053Z,2.38
2023-05-19T03:50:02.277Z,2.40
2023-05-19T03:53:04.719Z,2.47
2023-05-19T03:55:39.413Z,2.50
2023-05-19T03:58:07.091Z,2.33
2023-05-19T04:00:36.638Z,2.65
2023-05-19T04:03:03.849Z,2.58
2023-05-19T04:05:31.125Z,2.45
2023-05-19T04:07:58.254Z,2.78
2023-05-19T04:10:25.479Z,2.65
2023-05-19T04:12:55.139Z,2.72
2023-05-19T04:15:22.232Z,2.83
2023-05-19T04:17:50.641Z,2.88
2023-05-19T04:20:18.910Z,2.72
2023-05-19T04:22:46.031Z,3.13
2023-05-19T04:25:13.427Z,3.17
2023-05-19T04:27:40.534Z,3.15
2023-05-19T04:30:08.486Z,3.45
2023-05-19T04:32:37.746Z,2.90
2023-05-19T04:35:05.987Z,3.13
2023-05-19T04:37:33.095Z,3.38
2023-05-19T04:40:01.656Z,3.92
2023-05-19T04:42:33.143Z,3.63
2023-05-19T04:45:03.906Z,3.47
2023-05-19T04:47:36.960Z,3.15
2023-05-19T04:50:05.787Z,4.50
2023-05-19T04:52:33.853Z,3.88
2023-05-19T04:57:30.105Z,3.28
2023-05-19T05:00:00.374Z,3.67
2023-05-19T05:02:35.110Z,4.15
2023-05-19T05:05:02.689Z,3.58
2023-05-19T05:07:32.531Z,3.80
2023-05-19T05:10:01.309Z,3.83
2023-05-19T05:12:32.401Z,3.75
2023-05-19T05:15:00.235Z,3.67
2023-05-19T05:17:28.460Z,3.78
2023-05-19T05:19:56.043Z,4.53
2023-05-19T05:22:23.552Z,3.72
2023-05-19T05:24:51.085Z,4.10
2023-05-19T05:27:19.283Z,4.10
2023-05-19T05:29:46.567Z,4.55
2023-05-19T05:32:17.099Z,4.13
2023-05-19T05:34:44.766Z,4.78
2023-05-19T05:37:14.605Z,4.60
2023-05-19T05:39:43.030Z,6.13
2023-05-19T05:42:11.162Z,6.65
2023-05-19T05:44:40.488Z,4.63
2023-05-19T05:47:08.594Z,4.53
2023-05-19T05:49:38.275Z,4.45
2023-05-19T05:52:08.169Z,5.72
2023-05-19T05:54:42.336Z,4.78
2023-05-19T05:57:10.885Z,4.40
2023-05-19T05:59:38.797Z,5.32
2023-05-19T06:02:05.973Z,4.60
2023-05-19T06:04:34.793Z,4.80
2023-05-19T06:07:02.121Z,4.97
2023-05-19T06:09:33.648Z,4.88
2023-05-19T06:12:02.478Z,5.18
2023-05-19T06:14:34.800Z,5.20
2023-05-19T06:17:40.617Z,5.47
2023-05-19T06:20:10.264Z,5.10
2023-05-19T06:22:37.533Z,5.50
2023-05-19T06:25:07.171Z,5.75
2023-05-19T06:27:34.922Z,5.95
2023-05-19T06:30:03.384Z,6.45
2023-05-19T06:32:36.083Z,6.20
2023-05-19T06:35:03.344Z,5.90
2023-05-19T06:37:31.918Z,6.18
2023-05-19T06:39:59.122Z,5.63
2023-05-19T06:42:27.034Z,5.38
2023-05-19T06:45:22.479Z,6.00
2023-05-19T06:47:51.489Z,7.07
2023-05-19T06:50:19.621Z,6.22
2023-05-19T06:52:49.248Z,6.18
2023-05-19T06:55:16.910Z,5.40
2023-05-19T06:57:44.070Z,6.00
2023-05-19T07:00:14.623Z,5.80
2023-05-19T07:02:48.140Z,6.10
2023-05-19T07:05:15.898Z,5.72
2023-05-19T07:07:46.988Z,5.32
2023-05-19T07:10:18.221Z,5.63
2023-05-19T07:12:47.410Z,6.10
2023-05-19T07:15:17.049Z,6.35
2023-05-19T07:17:44.742Z,6.30
2023-05-19T07:20:12.498Z,6.80
2023-05-19T07:22:40.289Z,5.57
2023-05-19T07:25:08.650Z,6.40
2023-05-19T07:27:36.742Z,6.03
2023-05-19T07:30:04.417Z,5.57
2023-05-19T07:32:34.537Z,6.80
2023-05-19T07:35:01.768Z,6.43
2023-05-19T07:37:32.449Z,6.45
2023-05-19T07:39:59.652Z,5.95
2023-05-19T07:42:26.786Z,6.15
2023-05-19T07:44:53.919Z,6.07
2023-05-19T07:47:21.047Z,6.40
2023-05-19T07:49:50.315Z,5.97
2023-05-19T07:52:19.158Z,6.20
2023-05-19T07:54:46.562Z,6.55
2023-05-19T07:57:14.660Z,6.93
2023-05-19T07:59:41.729Z,7.18
2023-05-19T08:02:08.940Z,6.65
2023-05-19T08:04:36.578Z,6.43
2023-05-19T08:07:04.026Z,6.82
2023-05-19T08:09:31.134Z,6.25
2023-05-19T08:11:58.336Z,6.18
2023-05-19T08:14:26.349Z,6.10
2023-05-19T08:16:53.553Z,6.30
2023-05-19T08:19:21.020Z,6.35
2023-05-19T08:21:48.495Z,6.82
2023-05-19T08:24:15.856Z,6.45
2023-05-19T08:26:44.230Z,6.95
2023-05-19T08:29:11.512Z,5.88
2023-05-19T08:31:38.634Z,6.30
2023-05-19T08:34:05.739Z,6.03
2023-05-19T08:36:34.054Z,5.30
2023-05-19T08:39:03.787Z,5.78
2023-05-19T08:41:31.382Z,5.68
2023-05-19T08:43:58.580Z,4.45
2023-05-19T08:46:26.273Z,3.65
2023-05-19T08:49:02.363Z,3.83
2023-05-19T08:51:35.608Z,3.13
2023-05-19T08:54:16.090Z,3.88
2023-05-19T08:56:44.976Z,3.90
2023-05-19T08:59:14.380Z,4.15
2023-05-19T09:01:48.758Z,3.25
2023-05-19T09:04:17.238Z,3.65
2023-05-19T09:06:45.358Z,3.42
2023-05-19T09:09:12.774Z,3.95
2023-05-19T09:11:39.868Z,4.10
2023-05-19T09:14:07.116Z,3.25
2023-05-19T09:16:34.926Z,3.10
2023-05-19T09:19:02.281Z,3.13
2023-05-19T09:21:31.386Z,3.53
2023-05-19T09:24:08.560Z,3.55
2023-05-19T09:26:40.519Z,3.50
2023-05-19T09:29:17.927Z,2.75
2023-05-19T09:32:00.582Z,2.70
2023-05-19T09:34:28.258Z,2.80
2023-05-19T09:36:55.408Z,2.83
2023-05-19T09:39:24.050Z,2.95
2023-05-19T09:41:53.908Z,2.55
2023-05-19T09:44:24.063Z,2.40
2023-05-19T09:46:52.976Z,2.33
2023-05-19T09:49:30.653Z,2.15
2023-05-19T09:52:03.652Z,2.17
2023-05-19T09:54:32.605Z,2.70
2023-05-19T09:57:01.170Z,2.22
2023-05-19T09:59:32.286Z,2.10
2023-05-19T10:02:01.573Z,1.92
2023-05-19T10:04:31.154Z,1.85
2023-05-19T10:07:00.153Z,2.00
2023-05-19T10:09:29.785Z,2.38
2023-05-19T10:11:58.526Z,2.30
2023-05-19T10:14:27.545Z,2.10
2023-05-19T10:16:56.592Z,1.85
2023-05-19T10:19:26.788Z,2.08
2023-05-19T10:21:54.768Z,1.90
2023-05-19T10:24:22.016Z,2.10
2023-05-19T10:26:58.697Z,1.90
2023-05-19T10:29:37.999Z,2.22
2023-05-19T10:32:10.804Z,1.83
2023-05-19T10:35:16.897Z,1.92
2023-05-19T10:37:53.499Z,2.03
2023-05-19T10:40:51.818Z,2.10
2023-05-19T10:43:37.421Z,1.80
2023-05-19T10:46:05.719Z,3.28
2023-05-19T10:48:38.529Z,2.20
2023-05-19T10:51:07.313Z,1.77
2023-05-19T10:53:35.273Z,1.50
2023-05-19T10:56:04.164Z,2.22
2023-05-19T10:58:39.486Z,1.50
2023-05-19T11:01:13.817Z,1.65
2023-05-19T11:03:54.786Z,1.70
2023-05-19T11:06:32.548Z,1.80
2023-05-19T11:09:02.054Z,2.10
2023-05-19T11:11:47.432Z,1.90
2023-05-19T11:14:23.215Z,2.03
2023-05-19T11:16:52.576Z,1.73
2023-05-19T11:19:28.636Z,1.80
2023-05-19T11:21:57.651Z,1.70
2023-05-19T11:24:50.104Z,2.03
2023-05-19T11:27:33.498Z,1.60
2023-05-19T11:30:06.699Z,2.05
2023-05-19T11:32:39.345Z,1.83
2023-05-19T11:35:08.079Z,1.70
2023-05-19T11:37:35.985Z,2.00
2023-05-19T11:40:09.575Z,1.73
2023-05-19T11:42:37.358Z,2.60
2023-05-19T11:45:06.557Z,1.50
2023-05-19T11:47:59.807Z,1.80
2023-05-19T11:50:23.577Z,1.48
2023-05-19T11:52:52.250Z,1.60
2023-05-19T11:55:22.875Z,1.52
2023-05-19T12:00:31.322Z,1.50
2023-05-19T12:02:58.648Z,1.50
2023-05-19T12:05:29.568Z,2.20
2023-05-19T12:07:56.852Z,2.20
2023-05-19T12:10:30.424Z,1.60
2023-05-19T12:12:58.726Z,2.03
2023-05-19T12:15:26.413Z,1.50
2023-05-19T12:18:01.825Z,1.30
2023-05-19T12:20:32.765Z,1.60
2023-05-19T12:23:01.246Z,1.42
2023-05-19T12:25:32.648Z,1.98
2023-05-19T12:28:03.357Z,1.38
2023-05-19T12:30:32.383Z,1.23
2023-05-19T12:33:01.516Z,1.80
2023-05-19T12:35:30.744Z,2.05
2023-05-19T12:38:03.234Z,1.60
2023-05-19T12:40:30.659Z,1.70
2023-05-19T12:43:00.760Z,1.40
2023-05-19T12:45:28.922Z,1.40
2023-05-19T12:47:56.834Z,1.42
2023-05-19T12:50:31.491Z,1.80
2023-05-19T12:55:27.378Z,1.85
2023-05-19T12:57:58.368Z,2.33
2023-05-19T13:00:28.712Z,2.70
2023-05-19T13:03:10.231Z,1.73
2023-05-19T13:05:40.068Z,1.65
2023-05-19T13:08:09.093Z,1.98
2023-05-19T13:10:37.611Z,1.92
2023-05-19T13:13:05.364Z,2.15
2023-05-19T13:15:35.576Z,1.80
2023-05-19T13:18:04.756Z,2.00
2023-05-19T13:20:33.534Z,1.55
2023-05-19T13:25:34.555Z,1.60
2023-05-19T13:28:05.772Z,1.63
2023-05-19T13:30:34.832Z,1.40
2023-05-19T13:33:03.167Z,1.30
2023-05-19T13:35:36.924Z,1.80
2023-05-19T13:38:10.476Z,1.60
2023-05-19T13:40:39.808Z,1.60
2023-05-19T13:43:07.980Z,1.50
2023-05-19T13:45:35.253Z,1.42
2023-05-19T13:48:02.843Z,1.60
2023-05-19T13:50:30.147Z,1.38
2023-05-19T13:52:57.249Z,1.40
2023-05-19T13:55:27.362Z,1.85
2023-05-19T13:57:54.614Z,1.30
2023-05-19T14:00:21.951Z,1.60
2023-05-19T14:02:49.410Z,1.27
2023-05-19T14:05:16.776Z,1.40
2023-05-19T14:07:44.782Z,2.08
2023-05-19T14:10:12.294Z,1.60
2023-05-19T14:12:49.581Z,1.30
2023-05-19T14:15:27.572Z,1.48
2023-05-19T14:17:55.186Z,1.50
2023-05-19T14:20:22.842Z,1.30
2023-05-19T14:22:50.261Z,1.40
2023-05-19T14:25:17.483Z,2.03
2023-05-19T14:27:44.615Z,1.55
2023-05-19T14:30:12.061Z,1.50
2023-05-19T14:32:39.314Z,1.50
2023-05-19T14:35:12.354Z,1.30
2023-05-19T14:37:42.478Z,1.42
2023-05-19T14:40:10.106Z,1.40
2023-05-19T14:42:37.302Z,1.60
2023-05-19T14:45:04.639Z,1.33
2023-05-19T14:47:36.680Z,1.50
2023-05-19T14:50:29.101Z,1.50
2023-05-19T14:52:57.614Z,1.33
2023-05-19T14:55:26.891Z,1.42
2023-05-19T14:57:54.145Z,1.30
2023-05-19T15:00:29.096Z,1.80
2023-05-19T15:02:59.012Z,1.42
2023-05-19T15:05:29.139Z,1.85
2023-05-19T15:07:56.269Z,1.90
2023-05-19T15:10:24.401Z,1.67
2023-05-19T15:12:56.412Z,1.50
2023-05-19T15:15:23.658Z,1.92
2023-05-19T15:17:51.021Z,1.50
2023-05-19T15:20:18.349Z,1.70
2023-05-19T15:22:45.412Z,1.50
2023-05-19T15:25:12.650Z,1.60
2023-05-19T15:27:39.770Z,2.03
2023-05-19T15:30:07.474Z,2.40
2023-05-19T15:35:02.877Z,1.52
2023-05-19T15:37:31.183Z,1.45
2023-05-19T15:39:58.346Z,1.55
2023-05-19T15:42:26.188Z,1.70
2023-05-19T15:44:53.308Z,1.83
2023-05-19T15:47:20.476Z,1.50
2023-05-19T15:49:47.937Z,1.60
2023-05-19T15:52:15.116Z,1.35
2023-05-19T15:54:42.544Z,1.50
2023-05-19T15:57:09.627Z,1.25
2023-05-19T15:59:36.818Z,1.27
2023-05-19T16:02:04.089Z,1.23
2023-05-19T16:04:31.345Z,1.67
2023-05-19T16:06:58.466Z,2.28
2023-05-19T16:09:25.611Z,2.35
2023-05-19T16:11:52.795Z,1.63
2023-05-19T16:14:19.878Z,1.30
2023-05-19T16:16:47.289Z,1.65
2023-05-19T16:19:14.624Z,1.52
2023-05-19T16:21:41.880Z,1.92
2023-05-19T16:24:09.001Z,2.00
2023-05-19T16:26:36.251Z,2.40
2023-05-19T16:29:03.495Z,1.60
2023-05-19T16:31:31.094Z,2.10
2023-05-19T16:33:58.267Z,2.25
2023-05-19T16:36:25.535Z,1.58
2023-05-19T16:38:53.543Z,4.28
2023-05-19T16:41:21.837Z,2.25
2023-05-19T16:43:49.160Z,2.13
2023-05-19T16:46:16.657Z,1.55
2023-05-19T16:48:43.834Z,1.55
2023-05-19T16:51:10.942Z,1.40
2023-05-19T16:53:38.159Z,1.38
2023-05-19T16:56:06.071Z,1.75
2023-05-19T16:58:33.154Z,1.13
2023-05-19T17:01:00.446Z,1.98
2023-05-19T17:03:27.723Z,1.20
2023-05-19T17:05:54.909Z,1.58
2023-05-19T17:08:22.430Z,1.67
2023-05-19T17:10:49.794Z,1.42
2023-05-19T17:13:16.996Z,1.50
2023-05-19T17:15:44.069Z,1.20
2023-05-19T17:18:12.697Z,1.40
2023-05-19T17:20:39.937Z,1.60
2023-05-19T17:23:07.123Z,1.38
2023-05-19T17:25:34.845Z,1.50
2023-05-19T17:28:02.231Z,1.33
2023-05-19T17:30:29.511Z,1.10
2023-05-19T17:32:59.169Z,1.17
2023-05-19T17:35:28.272Z,1.33
2023-05-19T17:37:55.869Z,1.30
2023-05-19T17:40:23.070Z,1.02
2023-05-19T17:42:50.245Z,1.85
2023-05-19T17:45:17.735Z,1.45
2023-05-19T17:47:45.194Z,1.20
2023-05-19T17:50:12.374Z,1.13
2023-05-19T17:52:40.969Z,1.40
2023-05-19T17:55:09.211Z,1.10
2023-05-19T17:57:37.740Z,1.30
2023-05-19T18:00:05.786Z,1.20
2023-05-19T18:02:34.328Z,1.10
2023-05-19T18:05:02.062Z,1.20
2023-05-19T18:07:33.875Z,1.33
2023-05-19T18:10:01.863Z,1.30
2023-05-19T18:12:53.821Z,1.77
2023-05-19T18:15:21.116Z,1.10
2023-05-19T18:17:55.825Z,1.10
2023-05-19T18:20:23.349Z,1.13
2023-05-19T18:22:50.645Z,1.20
2023-05-19T18:25:18.706Z,1.10
2023-05-19T18:27:47.236Z,1.25
2023-05-19T18:30:14.762Z,1.10
2023-05-19T18:32:42.424Z,2.15
2023-05-19T18:35:12.425Z,1.08
2023-05-19T18:37:39.661Z,1.05
2023-05-19T18:40:07.596Z,1.30
2023-05-19T18:42:35.138Z,1.10
2023-05-19T18:45:02.477Z,1.75
2023-05-19T18:47:32.910Z,1.30
2023-05-19T18:50:00.263Z,1.42
2023-05-19T18:52:28.738Z,1.30
2023-05-19T18:54:56.026Z,1.33
2023-05-19T18:57:23.216Z,1.33
2023-05-19T18:59:50.303Z,1.33
2023-05-19T19:02:17.426Z,1.73
2023-05-19T19:04:45.485Z,1.50
2023-05-19T19:07:14.015Z,1.40
2023-05-19T19:09:43.804Z,1.30
2023-05-19T19:12:11.255Z,1.27
2023-05-19T19:14:39.142Z,1.40
2023-05-19T19:17:06.430Z,2.28
2023-05-19T19:19:33.655Z,1.65
2023-05-19T19:22:01.214Z,1.45
2023-05-19T19:24:28.857Z,1.75
2023-05-19T19:26:55.979Z,1.65
2023-05-19T19:29:23.125Z,1.40
2023-05-19T19:31:50.522Z,1.27
2023-05-19T19:34:20.025Z,1.30
2023-05-19T19:36:48.008Z,1.20
2023-05-19T19:39:15.353Z,1.20
2023-05-19T19:41:42.696Z,12.63
2023-05-19T19:44:09.903Z,1.40
2023-05-19T19:46:37.201Z,1.50
2023-05-19T19:49:04.380Z,1.50
2023-05-19T19:51:31.881Z,1.33
2023-05-19T19:53:59.306Z,1.08
2023-05-19T19:56:27.671Z,1.30
2023-05-19T19:58:56.909Z,1.45
2023-05-19T20:01:27.939Z,1.30
2023-05-19T20:03:56.154Z,1.33
2023-05-19T20:06:23.755Z,1.40
2023-05-19T20:08:50.926Z,1.20
2023-05-19T20:11:18.182Z,1.55
2023-05-19T20:13:45.327Z,1.55
2023-05-19T20:16:12.534Z,1.48
2023-05-19T20:18:39.817Z,1.55
2023-05-19T20:21:06.985Z,1.40
2023-05-19T20:23:34.120Z,1.90
2023-05-19T20:26:11.719Z,1.30
2023-05-19T20:28:40.348Z,1.48
2023-05-19T20:31:07.759Z,1.40
2023-05-19T20:33:35.329Z,1.58
2023-05-19T20:36:02.451Z,1.50
2023-05-19T20:38:29.648Z,1.52
2023-05-19T20:40:56.812Z,1.23
2023-05-19T20:43:23.989Z,1.48
2023-05-19T20:45:51.577Z,1.40
2023-05-19T20:48:18.834Z,1.50
2023-05-19T20:50:46.043Z,1.80
2023-05-19T20:53:13.172Z,1.60
2023-05-19T20:55:40.500Z,1.30
2023-05-19T20:58:07.728Z,1.45
2023-05-19T21:00:35.317Z,1.50
2023-05-19T21:03:02.750Z,1.70
2023-05-19T21:05:30.090Z,1.50
2023-05-19T21:07:57.293Z,1.40
2023-05-19T21:10:24.493Z,1.65
2023-05-19T21:12:51.651Z,1.33
2023-05-19T21:15:18.931Z,1.50
2023-05-19T21:17:46.918Z,1.60
2023-05-19T21:20:21.350Z,1.40
2023-05-19T21:22:48.461Z,1.50
2023-05-19T21:25:17.159Z,1.35
2023-05-19T21:27:49.027Z,2.17
2023-05-19T21:30:25.945Z,1.50
2023-05-19T21:32:53.556Z,1.67
2023-05-19T21:35:20.935Z,2.17
2023-05-19T21:37:48.159Z,3.33
2023-05-19T21:40:15.286Z,4.10
2023-05-19T21:42:42.400Z,4.47
2023-05-19T21:45:09.998Z,1.40
2023-05-19T21:47:37.131Z,2.60
2023-05-19T21:50:04.457Z,1.40
2023-05-19T21:52:32.652Z,1.70
2023-05-19T21:54:59.744Z,1.80
2023-05-19T21:57:26.939Z,1.50
2023-05-19T21:59:54.110Z,1.52
2023-05-19T22:02:21.333Z,1.35
2023-05-19T22:04:48.526Z,1.40
2023-05-19T22:07:15.624Z,1.75
2023-05-19T22:09:42.891Z,1.42
2023-05-19T22:12:09.976Z,1.40
2023-05-19T22:14:37.131Z,1.80
2023-05-19T22:17:04.479Z,1.67
2023-05-19T22:19:31.608Z,1.38
2023-05-19T22:22:09.813Z,1.73
2023-05-19T22:24:40.834Z,1.80
2023-05-19T22:27:08.392Z,1.63
2023-05-19T22:29:38.654Z,1.75
2023-05-19T22:32:07.873Z,1.60
2023-05-19T22:34:35.244Z,1.60
2023-05-19T22:37:02.476Z,1.48
2023-05-19T22:39:29.545Z,1.50
2023-05-19T22:41:56.653Z,1.40
2023-05-19T22:44:23.760Z,1.30
2023-05-19T22:46:50.844Z,1.67
2023-05-19T22:49:17.966Z,1.40
2023-05-19T22:51:45.078Z,1.42
2023-05-19T22:54:12.793Z,1.52
2023-05-19T22:56:39.899Z,1.65
2023-05-19T22:59:07.083Z,1.20
2023-05-19T23:01:34.252Z,1.35
2023-05-19T23:04:01.554Z,1.10
2023-05-19T23:06:28.785Z,1.40
2023-05-19T23:09:03.578Z,1.35
2023-05-19T23:11:31.185Z,1.10
2023-05-19T23:13:58.348Z,1.40
2023-05-19T23:16:25.512Z,1.40
2023-05-19T23:18:52.741Z,1.48
2023-05-19T23:21:20.076Z,1.15
2023-05-19T23:23:47.149Z,1.25
2023-05-19T23:26:14.280Z,1.25
2023-05-19T23:28:44.662Z,1.20
2023-05-19T23:31:11.742Z,1.63
2023-05-19T23:33:39.188Z,1.10
2023-05-19T23:36:10.782Z,1.40
2023-05-19T23:38:38.109Z,1.27
2023-05-19T23:41:05.750Z,1.30
2023-05-19T23:43:33.015Z,1.60
2023-05-19T23:46:00.383Z,1.50
2023-05-19T23:48:31.381Z,1.75
2023-05-19T23:50:58.848Z,1.20
2023-05-19T23:53:26.122Z,1.42
2023-05-19T23:55:53.223Z,1.30
2023-05-19T23:58:20.736Z,1.10
